sensor_id;sensor_type;location;lat;lon;timestamp;noise_LAeq;noise_LA_min;noise_LA_max;noise_LA01;noise_LA95
67324;Laerm;57667;51.438;5.968;2023-06-26T00:00:00;44.18;41.76;46.27;;
67324;Laerm;57667;51.438;5.968;2023-06-26T00:00:11;44.40;42.58;49.63;;
67324;Laerm;57667;51.438;5.968;2023-06-26T00:00:22;44.51;42.42;49.54;;
67324;Laerm;57667;51.438;5.968;2023-06-26T00:00:32;45.04;42.66;54.42;;
67324;Laerm;57667;51.438;5.968;2023-06-26T00:00:43;44.41;42.28;48.65;;
67324;Laerm;57667;51.438;5.968;2023-06-26T00:00:53;44.80;42.58;48.98;;
67324;Laerm;57667;51.438;5.968;2023-06-26T00:01:03;44.55;42.60;48.44;;
67324;Laerm;57667;51.438;5.968;2023-06-26T00:01:15;44.61;42.70;47.02;;
67324;Laerm;57667;51.438;5.968;2023-06-26T00:01:26;44.73;42.69;50.06;;
67324;Laerm;57667;51.438;5.968;2023-06-26T00:01:39;45.08;42.51;50.09;;
67324;Laerm;57667;51.438;5.968;2023-06-26T00:01:50;44.85;42.77;53.09;;
67324;Laerm;57667;51.438;5.968;2023-06-26T00:02:00;44.46;42.43;48.59;;
67324;Laerm;57667;51.438;5.968;2023-06-26T00:02:10;44.46;42.75;50.39;;
67324;Laerm;57667;51.438;5.968;2023-06-26T00:02:21;44.63;42.56;48.42;;
67324;Laerm;57667;51.438;5.968;2023-06-26T00:02:31;44.45;42.59;51.25;;
67324;Laerm;57667;51.438;5.968;2023-06-26T00:02:42;44.91;42.67;54.75;;
67324;Laerm;57667;51.438;5.968;2023-06-26T00:02:53;44.48;42.23;47.83;;
67324;Laerm;57667;51.438;5.968;2023-06-26T00:03:04;44.19;42.69;46.36;;
67324;Laerm;57667;51.438;5.968;2023-06-26T00:03:14;44.32;42.56;46.91;;
67324;Laerm;57667;51.438;5.968;2023-06-26T00:03:25;45.06;42.72;52.55;;
67324;Laerm;57667;51.438;5.968;2023-06-26T00:03:35;44.59;42.22;47.17;;
67324;Laerm;57667;51.438;5.968;2023-06-26T00:03:46;45.02;42.70;50.26;;
67324;Laerm;57667;51.438;5.968;2023-06-26T00:03:57;45.31;43.36;52.68;;
67324;Laerm;57667;51.438;5.968;2023-06-26T00:04:07;47.45;44.84;50.45;;
67324;Laerm;57667;51.438;5.968;2023-06-26T00:04:18;46.02;43.18;51.40;;
67324;Laerm;57667;51.438;5.968;2023-06-26T00:04:28;44.42;42.72;49.34;;
67324;Laerm;57667;51.438;5.968;2023-06-26T00:04:38;44.60;42.67;47.47;;
67324;Laerm;57667;51.438;5.968;2023-06-26T00:04:49;44.85;42.58;53.40;;
67324;Laerm;57667;51.438;5.968;2023-06-26T00:05:04;44.83;42.01;48.78;;
67324;Laerm;57667;51.438;5.968;2023-06-26T00:05:14;44.84;42.84;50.02;;
67324;Laerm;57667;51.438;5.968;2023-06-26T00:05:24;44.45;42.75;49.09;;
67324;Laerm;57667;51.438;5.968;2023-06-26T00:05:35;44.54;42.36;49.64;;
67324;Laerm;57667;51.438;5.968;2023-06-26T00:05:45;44.69;42.38;50.81;;
67324;Laerm;57667;51.438;5.968;2023-06-26T00:05:55;44.59;42.72;48.89;;
67324;Laerm;57667;51.438;5.968;2023-06-26T00:06:10;44.77;42.53;50.11;;
67324;Laerm;57667;51.438;5.968;2023-06-26T00:06:20;45.00;42.81;58.22;;
67324;Laerm;57667;51.438;5.968;2023-06-26T00:06:31;45.56;42.87;62.29;;
67324;Laerm;57667;51.438;5.968;2023-06-26T00:06:41;44.85;42.40;51.61;;
67324;Laerm;57667;51.438;5.968;2023-06-26T00:06:51;44.70;42.92;48.12;;
67324;Laerm;57667;51.438;5.968;2023-06-26T00:07:02;44.75;42.68;50.27;;
67324;Laerm;57667;51.438;5.968;2023-06-26T00:07:12;44.60;42.87;48.18;;
67324;Laerm;57667;51.438;5.968;2023-06-26T00:07:22;44.85;42.78;50.86;;
67324;Laerm;57667;51.438;5.968;2023-06-26T00:07:33;44.64;42.57;50.97;;
67324;Laerm;57667;51.438;5.968;2023-06-26T00:07:46;44.53;42.59;47.19;;
67324;Laerm;57667;51.438;5.968;2023-06-26T00:07:56;44.56;42.95;50.08;;
67324;Laerm;57667;51.438;5.968;2023-06-26T00:08:10;44.49;42.69;50.74;;
67324;Laerm;57667;51.438;5.968;2023-06-26T00:08:20;44.56;42.77;51.44;;
67324;Laerm;57667;51.438;5.968;2023-06-26T00:08:31;44.99;42.79;52.02;;
67324;Laerm;57667;51.438;5.968;2023-06-26T00:08:41;44.40;41.95;51.39;;
67324;Laerm;57667;51.438;5.968;2023-06-26T00:08:52;44.59;42.45;48.48;;
67324;Laerm;57667;51.438;5.968;2023-06-26T00:09:03;44.79;42.41;53.34;;
67324;Laerm;57667;51.438;5.968;2023-06-26T00:09:13;44.81;42.35;50.46;;
67324;Laerm;57667;51.438;5.968;2023-06-26T00:09:23;44.69;41.99;50.90;;
67324;Laerm;57667;51.438;5.968;2023-06-26T00:09:34;44.53;42.71;48.72;;
67324;Laerm;57667;51.438;5.968;2023-06-26T00:09:44;44.62;42.45;50.25;;
67324;Laerm;57667;51.438;5.968;2023-06-26T00:09:55;44.74;42.37;47.94;;
67324;Laerm;57667;51.438;5.968;2023-06-26T00:10:06;44.81;42.90;48.42;;
67324;Laerm;57667;51.438;5.968;2023-06-26T00:10:17;44.84;42.78;52.92;;
67324;Laerm;57667;51.438;5.968;2023-06-26T00:10:27;44.46;42.41;46.78;;
67324;Laerm;57667;51.438;5.968;2023-06-26T00:10:37;44.68;42.62;49.59;;
67324;Laerm;57667;51.438;5.968;2023-06-26T00:10:48;44.69;42.69;49.54;;
67324;Laerm;57667;51.438;5.968;2023-06-26T00:11:01;44.73;42.63;51.23;;
67324;Laerm;57667;51.438;5.968;2023-06-26T00:11:11;44.85;42.95;47.94;;
67324;Laerm;57667;51.438;5.968;2023-06-26T00:11:22;44.89;42.69;48.17;;
67324;Laerm;57667;51.438;5.968;2023-06-26T00:11:32;44.97;42.87;50.19;;
67324;Laerm;57667;51.438;5.968;2023-06-26T00:11:43;44.99;43.39;48.48;;
67324;Laerm;57667;51.438;5.968;2023-06-26T00:11:53;45.26;42.88;53.34;;
67324;Laerm;57667;51.438;5.968;2023-06-26T00:12:04;45.31;43.59;49.24;;
67324;Laerm;57667;51.438;5.968;2023-06-26T00:12:14;45.25;43.12;47.32;;
67324;Laerm;57667;51.438;5.968;2023-06-26T00:12:24;45.36;43.11;48.72;;
67324;Laerm;57667;51.438;5.968;2023-06-26T00:12:35;45.22;43.12;52.61;;
67324;Laerm;57667;51.438;5.968;2023-06-26T00:12:45;44.80;43.08;48.81;;
67324;Laerm;57667;51.438;5.968;2023-06-26T00:12:55;44.87;42.85;50.01;;
67324;Laerm;57667;51.438;5.968;2023-06-26T00:13:06;45.13;42.89;49.74;;
67324;Laerm;57667;51.438;5.968;2023-06-26T00:13:16;44.81;43.16;47.85;;
67324;Laerm;57667;51.438;5.968;2023-06-26T00:13:26;44.97;43.21;53.39;;
67324;Laerm;57667;51.438;5.968;2023-06-26T00:13:37;44.87;43.16;47.81;;
67324;Laerm;57667;51.438;5.968;2023-06-26T00:13:47;45.12;42.76;53.30;;
67324;Laerm;57667;51.438;5.968;2023-06-26T00:13:58;44.52;42.71;46.79;;
67324;Laerm;57667;51.438;5.968;2023-06-26T00:14:10;44.89;42.93;48.29;;
67324;Laerm;57667;51.438;5.968;2023-06-26T00:14:20;44.85;42.40;52.08;;
67324;Laerm;57667;51.438;5.968;2023-06-26T00:14:31;44.77;42.34;48.89;;
67324;Laerm;57667;51.438;5.968;2023-06-26T00:14:41;44.92;43.10;47.46;;
67324;Laerm;57667;51.438;5.968;2023-06-26T00:14:51;44.69;42.87;50.15;;
67324;Laerm;57667;51.438;5.968;2023-06-26T00:15:02;44.61;42.44;48.15;;
67324;Laerm;57667;51.438;5.968;2023-06-26T00:15:13;44.92;42.89;51.71;;
67324;Laerm;57667;51.438;5.968;2023-06-26T00:15:23;45.29;42.92;52.37;;
67324;Laerm;57667;51.438;5.968;2023-06-26T00:15:34;44.70;42.41;49.04;;
67324;Laerm;57667;51.438;5.968;2023-06-26T00:15:44;44.97;42.97;49.34;;
67324;Laerm;57667;51.438;5.968;2023-06-26T00:15:54;45.03;43.04;51.34;;
67324;Laerm;57667;51.438;5.968;2023-06-26T00:16:05;44.94;43.41;48.22;;
67324;Laerm;57667;51.438;5.968;2023-06-26T00:16:15;45.59;43.65;49.34;;
67324;Laerm;57667;51.438;5.968;2023-06-26T00:16:26;45.33;43.38;48.78;;
67324;Laerm;57667;51.438;5.968;2023-06-26T00:16:36;45.19;43.28;47.71;;
67324;Laerm;57667;51.438;5.968;2023-06-26T00:16:47;45.42;42.91;53.37;;
67324;Laerm;57667;51.438;5.968;2023-06-26T00:16:59;45.32;43.34;49.98;;
67324;Laerm;57667;51.438;5.968;2023-06-26T00:17:09;45.17;43.31;48.50;;
67324;Laerm;57667;51.438;5.968;2023-06-26T00:17:21;45.15;42.59;50.28;;
67324;Laerm;57667;51.438;5.968;2023-06-26T00:17:31;45.23;42.84;49.94;;
67324;Laerm;57667;51.438;5.968;2023-06-26T00:17:46;45.37;43.00;50.13;;
67324;Laerm;57667;51.438;5.968;2023-06-26T00:17:57;45.22;42.85;52.01;;
67324;Laerm;57667;51.438;5.968;2023-06-26T00:18:08;45.30;43.24;51.29;;
67324;Laerm;57667;51.438;5.968;2023-06-26T00:18:18;45.13;42.92;50.50;;
67324;Laerm;57667;51.438;5.968;2023-06-26T00:18:29;45.35;43.62;51.31;;
67324;Laerm;57667;51.438;5.968;2023-06-26T00:18:39;45.18;42.88;50.43;;
67324;Laerm;57667;51.438;5.968;2023-06-26T00:18:49;44.99;42.69;47.79;;
67324;Laerm;57667;51.438;5.968;2023-06-26T00:18:59;45.46;43.47;51.68;;
67324;Laerm;57667;51.438;5.968;2023-06-26T00:19:10;45.25;43.14;48.73;;
67324;Laerm;57667;51.438;5.968;2023-06-26T00:19:20;45.04;43.18;48.33;;
67324;Laerm;57667;51.438;5.968;2023-06-26T00:19:30;45.03;42.99;47.85;;
67324;Laerm;57667;51.438;5.968;2023-06-26T00:19:41;44.98;42.73;47.62;;
67324;Laerm;57667;51.438;5.968;2023-06-26T00:19:51;44.97;42.84;52.69;;
67324;Laerm;57667;51.438;5.968;2023-06-26T00:20:02;44.83;43.07;48.95;;
67324;Laerm;57667;51.438;5.968;2023-06-26T00:20:12;45.03;42.82;52.22;;
67324;Laerm;57667;51.438;5.968;2023-06-26T00:20:26;45.02;42.64;48.40;;
67324;Laerm;57667;51.438;5.968;2023-06-26T00:20:36;45.10;42.79;50.45;;
67324;Laerm;57667;51.438;5.968;2023-06-26T00:20:47;45.66;42.75;50.00;;
67324;Laerm;57667;51.438;5.968;2023-06-26T00:20:57;45.34;43.09;51.47;;
67324;Laerm;57667;51.438;5.968;2023-06-26T00:21:07;45.02;42.83;48.96;;
67324;Laerm;57667;51.438;5.968;2023-06-26T00:21:18;44.87;42.78;47.56;;
67324;Laerm;57667;51.438;5.968;2023-06-26T00:21:29;45.13;43.34;50.56;;
67324;Laerm;57667;51.438;5.968;2023-06-26T00:21:39;45.19;42.68;48.79;;
67324;Laerm;57667;51.438;5.968;2023-06-26T00:21:49;45.13;42.67;48.58;;
67324;Laerm;57667;51.438;5.968;2023-06-26T00:22:00;45.09;43.29;48.76;;
67324;Laerm;57667;51.438;5.968;2023-06-26T00:22:10;45.47;43.22;47.95;;
67324;Laerm;57667;51.438;5.968;2023-06-26T00:22:21;45.35;43.39;50.70;;
67324;Laerm;57667;51.438;5.968;2023-06-26T00:22:31;45.02;43.21;47.20;;
67324;Laerm;57667;51.438;5.968;2023-06-26T00:22:42;45.25;42.86;48.67;;
67324;Laerm;57667;51.438;5.968;2023-06-26T00:22:52;45.42;43.62;49.46;;
67324;Laerm;57667;51.438;5.968;2023-06-26T00:23:03;45.18;42.76;49.15;;
67324;Laerm;57667;51.438;5.968;2023-06-26T00:23:17;45.08;42.65;51.44;;
67324;Laerm;57667;51.438;5.968;2023-06-26T00:23:28;45.24;43.18;49.03;;
67324;Laerm;57667;51.438;5.968;2023-06-26T00:23:38;45.46;43.33;49.15;;
67324;Laerm;57667;51.438;5.968;2023-06-26T00:23:48;45.30;42.64;48.90;;
67324;Laerm;57667;51.438;5.968;2023-06-26T00:23:59;45.60;43.27;51.08;;
67324;Laerm;57667;51.438;5.968;2023-06-26T00:24:09;45.68;43.25;51.90;;
67324;Laerm;57667;51.438;5.968;2023-06-26T00:24:19;45.28;42.98;51.84;;
67324;Laerm;57667;51.438;5.968;2023-06-26T00:24:30;44.83;43.11;46.56;;
67324;Laerm;57667;51.438;5.968;2023-06-26T00:24:40;45.06;43.12;48.36;;
67324;Laerm;57667;51.438;5.968;2023-06-26T00:24:50;45.36;43.48;56.27;;
67324;Laerm;57667;51.438;5.968;2023-06-26T00:25:01;45.15;43.34;50.22;;
67324;Laerm;57667;51.438;5.968;2023-06-26T00:25:12;45.37;43.41;49.85;;
67324;Laerm;57667;51.438;5.968;2023-06-26T00:25:22;45.17;42.98;48.40;;
67324;Laerm;57667;51.438;5.968;2023-06-26T00:25:33;45.63;42.67;51.36;;
67324;Laerm;57667;51.438;5.968;2023-06-26T00:25:43;44.87;42.52;50.01;;
67324;Laerm;57667;51.438;5.968;2023-06-26T00:25:54;45.07;43.00;50.47;;
67324;Laerm;57667;51.438;5.968;2023-06-26T00:26:04;44.99;43.06;51.20;;
67324;Laerm;57667;51.438;5.968;2023-06-26T00:26:14;45.20;42.94;49.10;;
67324;Laerm;57667;51.438;5.968;2023-06-26T00:26:25;45.01;42.54;50.12;;
67324;Laerm;57667;51.438;5.968;2023-06-26T00:26:35;44.99;43.39;48.30;;
67324;Laerm;57667;51.438;5.968;2023-06-26T00:26:46;44.94;43.12;47.18;;
67324;Laerm;57667;51.438;5.968;2023-06-26T00:26:56;44.95;43.11;47.64;;
67324;Laerm;57667;51.438;5.968;2023-06-26T00:27:08;45.48;43.28;54.57;;
67324;Laerm;57667;51.438;5.968;2023-06-26T00:27:18;45.57;43.14;50.03;;
67324;Laerm;57667;51.438;5.968;2023-06-26T00:27:28;45.23;42.89;52.71;;
67324;Laerm;57667;51.438;5.968;2023-06-26T00:27:39;45.20;42.77;48.43;;
67324;Laerm;57667;51.438;5.968;2023-06-26T00:27:49;45.46;42.21;51.47;;
67324;Laerm;57667;51.438;5.968;2023-06-26T00:27:59;45.42;43.40;50.75;;
67324;Laerm;57667;51.438;5.968;2023-06-26T00:28:10;45.50;43.27;51.74;;
67324;Laerm;57667;51.438;5.968;2023-06-26T00:28:20;44.98;43.25;48.24;;
67324;Laerm;57667;51.438;5.968;2023-06-26T00:28:30;45.61;43.61;50.64;;
67324;Laerm;57667;51.438;5.968;2023-06-26T00:28:41;45.58;43.68;50.24;;
67324;Laerm;57667;51.438;5.968;2023-06-26T00:28:51;45.86;43.30;49.96;;
67324;Laerm;57667;51.438;5.968;2023-06-26T00:29:01;45.77;43.28;49.47;;
67324;Laerm;57667;51.438;5.968;2023-06-26T00:29:12;45.86;43.25;52.65;;
67324;Laerm;57667;51.438;5.968;2023-06-26T00:29:22;45.43;42.88;48.44;;
67324;Laerm;57667;51.438;5.968;2023-06-26T00:29:32;45.31;43.24;50.19;;
67324;Laerm;57667;51.438;5.968;2023-06-26T00:29:43;45.66;43.92;50.00;;
67324;Laerm;57667;51.438;5.968;2023-06-26T00:29:53;45.38;43.20;48.59;;
67324;Laerm;57667;51.438;5.968;2023-06-26T00:30:03;45.39;43.23;50.56;;
67324;Laerm;57667;51.438;5.968;2023-06-26T00:30:14;45.35;43.26;48.36;;
67324;Laerm;57667;51.438;5.968;2023-06-26T00:30:24;45.65;43.71;53.76;;
67324;Laerm;57667;51.438;5.968;2023-06-26T00:30:35;45.53;43.31;49.22;;
67324;Laerm;57667;51.438;5.968;2023-06-26T00:30:45;45.52;43.58;48.79;;
67324;Laerm;57667;51.438;5.968;2023-06-26T00:30:55;45.56;43.13;55.28;;
67324;Laerm;57667;51.438;5.968;2023-06-26T00:31:06;45.21;42.85;48.89;;
67324;Laerm;57667;51.438;5.968;2023-06-26T00:31:16;45.33;43.43;48.03;;
67324;Laerm;57667;51.438;5.968;2023-06-26T00:31:26;45.52;43.50;51.04;;
67324;Laerm;57667;51.438;5.968;2023-06-26T00:31:37;45.22;43.26;48.92;;
67324;Laerm;57667;51.438;5.968;2023-06-26T00:31:48;45.30;43.21;50.03;;
67324;Laerm;57667;51.438;5.968;2023-06-26T00:31:58;45.75;43.23;48.92;;
67324;Laerm;57667;51.438;5.968;2023-06-26T00:32:08;45.65;43.69;51.29;;
67324;Laerm;57667;51.438;5.968;2023-06-26T00:32:19;45.71;43.73;52.14;;
67324;Laerm;57667;51.438;5.968;2023-06-26T00:32:29;45.68;43.95;52.21;;
67324;Laerm;57667;51.438;5.968;2023-06-26T00:32:39;45.58;43.37;51.46;;
67324;Laerm;57667;51.438;5.968;2023-06-26T00:32:50;45.51;43.42;52.96;;
67324;Laerm;57667;51.438;5.968;2023-06-26T00:33:01;45.34;43.10;48.55;;
67324;Laerm;57667;51.438;5.968;2023-06-26T00:33:11;45.50;43.47;49.08;;
67324;Laerm;57667;51.438;5.968;2023-06-26T00:33:22;45.42;43.63;49.74;;
67324;Laerm;57667;51.438;5.968;2023-06-26T00:33:32;45.71;43.03;53.61;;
67324;Laerm;57667;51.438;5.968;2023-06-26T00:33:42;45.93;43.05;49.77;;
67324;Laerm;57667;51.438;5.968;2023-06-26T00:33:53;45.07;42.80;50.20;;
67324;Laerm;57667;51.438;5.968;2023-06-26T00:34:03;44.95;43.33;48.28;;
67324;Laerm;57667;51.438;5.968;2023-06-26T00:34:13;44.93;43.23;47.67;;
67324;Laerm;57667;51.438;5.968;2023-06-26T00:34:24;45.32;43.33;52.03;;
67324;Laerm;57667;51.438;5.968;2023-06-26T00:34:35;45.14;42.99;48.57;;
67324;Laerm;57667;51.438;5.968;2023-06-26T00:34:45;45.15;43.14;48.78;;
67324;Laerm;57667;51.438;5.968;2023-06-26T00:34:56;45.27;43.53;47.37;;
67324;Laerm;57667;51.438;5.968;2023-06-26T00:35:07;45.12;43.39;50.86;;
67324;Laerm;57667;51.438;5.968;2023-06-26T00:35:17;45.31;42.99;51.98;;
67324;Laerm;57667;51.438;5.968;2023-06-26T00:35:27;46.72;44.61;50.83;;
67324;Laerm;57667;51.438;5.968;2023-06-26T00:35:38;45.91;43.56;49.49;;
67324;Laerm;57667;51.438;5.968;2023-06-26T00:35:48;45.24;43.33;52.77;;
67324;Laerm;57667;51.438;5.968;2023-06-26T00:35:59;45.32;43.32;49.29;;
67324;Laerm;57667;51.438;5.968;2023-06-26T00:36:09;45.55;43.47;49.62;;
67324;Laerm;57667;51.438;5.968;2023-06-26T00:36:19;45.79;43.58;50.95;;
67324;Laerm;57667;51.438;5.968;2023-06-26T00:36:29;45.53;43.53;49.64;;
67324;Laerm;57667;51.438;5.968;2023-06-26T00:36:40;45.56;42.87;49.88;;
67324;Laerm;57667;51.438;5.968;2023-06-26T00:36:53;45.45;42.87;53.00;;
67324;Laerm;57667;51.438;5.968;2023-06-26T00:37:03;45.53;43.36;48.32;;
67324;Laerm;57667;51.438;5.968;2023-06-26T00:37:14;45.53;43.51;51.17;;
67324;Laerm;57667;51.438;5.968;2023-06-26T00:37:24;45.74;42.62;52.61;;
67324;Laerm;57667;51.438;5.968;2023-06-26T00:37:34;45.43;43.33;50.74;;
67324;Laerm;57667;51.438;5.968;2023-06-26T00:37:45;45.58;43.51;48.89;;
67324;Laerm;57667;51.438;5.968;2023-06-26T00:37:55;45.73;43.31;53.58;;
67324;Laerm;57667;51.438;5.968;2023-06-26T00:38:05;45.62;43.00;49.76;;
67324;Laerm;57667;51.438;5.968;2023-06-26T00:38:16;45.75;43.46;55.94;;
67324;Laerm;57667;51.438;5.968;2023-06-26T00:38:27;45.55;43.61;49.21;;
67324;Laerm;57667;51.438;5.968;2023-06-26T00:38:37;45.68;43.58;51.61;;
67324;Laerm;57667;51.438;5.968;2023-06-26T00:38:48;45.41;43.17;50.80;;
67324;Laerm;57667;51.438;5.968;2023-06-26T00:38:59;45.28;43.23;50.27;;
67324;Laerm;57667;51.438;5.968;2023-06-26T00:39:09;45.35;43.18;50.05;;
67324;Laerm;57667;51.438;5.968;2023-06-26T00:39:20;45.28;43.14;49.06;;
67324;Laerm;57667;51.438;5.968;2023-06-26T00:39:30;45.32;42.79;52.77;;
67324;Laerm;57667;51.438;5.968;2023-06-26T00:39:40;45.11;43.12;49.01;;
67324;Laerm;57667;51.438;5.968;2023-06-26T00:39:51;44.93;42.75;51.87;;
67324;Laerm;57667;51.438;5.968;2023-06-26T00:40:01;45.11;43.11;49.60;;
67324;Laerm;57667;51.438;5.968;2023-06-26T00:40:12;45.13;42.11;53.99;;
67324;Laerm;57667;51.438;5.968;2023-06-26T00:40:22;45.20;43.05;50.56;;
67324;Laerm;57667;51.438;5.968;2023-06-26T00:40:33;45.20;42.34;53.65;;
67324;Laerm;57667;51.438;5.968;2023-06-26T00:40:43;44.61;42.21;48.14;;
67324;Laerm;57667;51.438;5.968;2023-06-26T00:40:54;45.08;42.31;49.64;;
67324;Laerm;57667;51.438;5.968;2023-06-26T00:41:04;44.90;42.83;49.31;;
67324;Laerm;57667;51.438;5.968;2023-06-26T00:41:15;44.98;42.66;49.76;;
67324;Laerm;57667;51.438;5.968;2023-06-26T00:41:25;45.19;42.40;53.54;;
67324;Laerm;57667;51.438;5.968;2023-06-26T00:41:36;44.35;42.43;47.82;;
67324;Laerm;57667;51.438;5.968;2023-06-26T00:41:47;44.19;42.09;47.99;;
67324;Laerm;57667;51.438;5.968;2023-06-26T00:41:57;44.29;42.41;49.93;;
67324;Laerm;57667;51.438;5.968;2023-06-26T00:42:08;44.97;42.51;50.07;;
67324;Laerm;57667;51.438;5.968;2023-06-26T00:42:18;45.04;42.59;49.69;;
67324;Laerm;57667;51.438;5.968;2023-06-26T00:42:28;45.35;42.45;50.41;;
67324;Laerm;57667;51.438;5.968;2023-06-26T00:42:39;44.66;42.63;49.61;;
67324;Laerm;57667;51.438;5.968;2023-06-26T00:42:49;44.65;42.20;49.08;;
67324;Laerm;57667;51.438;5.968;2023-06-26T00:43:00;44.20;42.08;49.00;;
67324;Laerm;57667;51.438;5.968;2023-06-26T00:43:10;43.93;42.14;47.89;;
67324;Laerm;57667;51.438;5.968;2023-06-26T00:43:20;43.89;41.91;48.19;;
67324;Laerm;57667;51.438;5.968;2023-06-26T00:43:31;44.00;42.06;48.18;;
67324;Laerm;57667;51.438;5.968;2023-06-26T00:43:41;43.93;41.81;49.61;;
67324;Laerm;57667;51.438;5.968;2023-06-26T00:43:51;43.67;41.14;46.73;;
67324;Laerm;57667;51.438;5.968;2023-06-26T00:44:02;43.67;41.89;46.61;;
67324;Laerm;57667;51.438;5.968;2023-06-26T00:44:13;43.75;41.74;48.15;;
67324;Laerm;57667;51.438;5.968;2023-06-26T00:44:23;43.73;41.88;47.69;;
67324;Laerm;57667;51.438;5.968;2023-06-26T00:44:33;43.51;41.53;46.66;;
67324;Laerm;57667;51.438;5.968;2023-06-26T00:44:44;43.41;41.27;47.92;;
67324;Laerm;57667;51.438;5.968;2023-06-26T00:44:54;43.33;41.29;49.05;;
67324;Laerm;57667;51.438;5.968;2023-06-26T00:45:04;43.54;41.75;47.63;;
67324;Laerm;57667;51.438;5.968;2023-06-26T00:45:15;43.29;41.48;47.21;;
67324;Laerm;57667;51.438;5.968;2023-06-26T00:45:26;43.42;41.52;50.11;;
67324;Laerm;57667;51.438;5.968;2023-06-26T00:45:36;43.30;41.43;49.19;;
67324;Laerm;57667;51.438;5.968;2023-06-26T00:45:46;43.85;41.43;48.77;;
67324;Laerm;57667;51.438;5.968;2023-06-26T00:45:57;43.96;41.52;48.48;;
67324;Laerm;57667;51.438;5.968;2023-06-26T00:46:12;43.88;41.19;49.96;;
67324;Laerm;57667;51.438;5.968;2023-06-26T00:46:22;44.08;41.62;48.01;;
67324;Laerm;57667;51.438;5.968;2023-06-26T00:46:34;44.13;41.88;50.25;;
67324;Laerm;57667;51.438;5.968;2023-06-26T00:46:44;44.05;41.99;47.41;;
67324;Laerm;57667;51.438;5.968;2023-06-26T00:46:55;44.04;41.87;46.15;;
67324;Laerm;57667;51.438;5.968;2023-06-26T00:47:05;43.94;42.25;48.40;;
67324;Laerm;57667;51.438;5.968;2023-06-26T00:47:16;43.94;41.77;47.17;;
67324;Laerm;57667;51.438;5.968;2023-06-26T00:47:27;43.71;41.56;46.20;;
67324;Laerm;57667;51.438;5.968;2023-06-26T00:47:38;43.59;41.04;47.01;;
67324;Laerm;57667;51.438;5.968;2023-06-26T00:47:48;43.83;41.75;48.32;;
67324;Laerm;57667;51.438;5.968;2023-06-26T00:47:59;43.78;42.03;48.27;;
67324;Laerm;57667;51.438;5.968;2023-06-26T00:48:10;43.51;41.55;45.61;;
67324;Laerm;57667;51.438;5.968;2023-06-26T00:48:22;43.76;41.78;48.06;;
67324;Laerm;57667;51.438;5.968;2023-06-26T00:48:32;43.93;41.94;46.79;;
67324;Laerm;57667;51.438;5.968;2023-06-26T00:48:43;43.84;41.72;46.18;;
67324;Laerm;57667;51.438;5.968;2023-06-26T00:48:54;43.62;41.59;45.83;;
67324;Laerm;57667;51.438;5.968;2023-06-26T00:49:05;43.36;41.21;46.19;;
67324;Laerm;57667;51.438;5.968;2023-06-26T00:49:15;43.51;41.19;51.32;;
67324;Laerm;57667;51.438;5.968;2023-06-26T00:49:26;43.70;41.46;48.23;;
67324;Laerm;57667;51.438;5.968;2023-06-26T00:49:37;43.84;41.88;48.21;;
67324;Laerm;57667;51.438;5.968;2023-06-26T00:49:47;43.55;41.26;46.04;;
67324;Laerm;57667;51.438;5.968;2023-06-26T00:49:58;43.39;40.99;46.06;;
67324;Laerm;57667;51.438;5.968;2023-06-26T00:50:08;43.42;41.49;45.83;;
67324;Laerm;57667;51.438;5.968;2023-06-26T00:50:18;43.40;41.30;47.47;;
67324;Laerm;57667;51.438;5.968;2023-06-26T00:50:29;43.47;41.11;46.95;;
67324;Laerm;57667;51.438;5.968;2023-06-26T00:50:40;43.23;41.26;46.03;;
67324;Laerm;57667;51.438;5.968;2023-06-26T00:50:51;43.20;41.18;46.57;;
67324;Laerm;57667;51.438;5.968;2023-06-26T00:51:02;43.08;41.09;46.17;;
67324;Laerm;57667;51.438;5.968;2023-06-26T00:51:12;42.85;41.02;45.67;;
67324;Laerm;57667;51.438;5.968;2023-06-26T00:51:23;43.11;41.12;45.60;;
67324;Laerm;57667;51.438;5.968;2023-06-26T00:51:33;43.48;41.02;48.15;;
67324;Laerm;57667;51.438;5.968;2023-06-26T00:51:43;42.94;41.16;45.71;;
67324;Laerm;57667;51.438;5.968;2023-06-26T00:51:54;43.05;40.88;48.52;;
67324;Laerm;57667;51.438;5.968;2023-06-26T00:52:04;43.15;41.06;47.88;;
67324;Laerm;57667;51.438;5.968;2023-06-26T00:52:15;43.13;41.16;47.63;;
67324;Laerm;57667;51.438;5.968;2023-06-26T00:52:26;43.01;40.94;47.03;;
67324;Laerm;57667;51.438;5.968;2023-06-26T00:52:37;42.24;40.14;45.73;;
67324;Laerm;57667;51.438;5.968;2023-06-26T00:52:47;42.44;40.66;50.61;;
67324;Laerm;57667;51.438;5.968;2023-06-26T00:52:57;42.37;40.92;47.74;;
67324;Laerm;57667;51.438;5.968;2023-06-26T00:53:10;42.22;40.20;46.51;;
67324;Laerm;57667;51.438;5.968;2023-06-26T00:53:21;42.47;40.76;47.75;;
67324;Laerm;57667;51.438;5.968;2023-06-26T00:53:32;42.06;40.66;45.37;;
67324;Laerm;57667;51.438;5.968;2023-06-26T00:53:42;42.23;40.20;46.18;;
67324;Laerm;57667;51.438;5.968;2023-06-26T00:53:53;42.09;40.38;45.98;;
67324;Laerm;57667;51.438;5.968;2023-06-26T00:54:04;42.30;40.35;45.23;;
67324;Laerm;57667;51.438;5.968;2023-06-26T00:54:14;42.35;40.27;45.75;;
67324;Laerm;57667;51.438;5.968;2023-06-26T00:54:30;42.27;40.44;45.70;;
67324;Laerm;57667;51.438;5.968;2023-06-26T00:54:41;42.18;40.45;49.52;;
67324;Laerm;57667;51.438;5.968;2023-06-26T00:54:51;42.56;40.11;48.28;;
67324;Laerm;57667;51.438;5.968;2023-06-26T00:55:02;42.33;40.61;45.05;;
67324;Laerm;57667;51.438;5.968;2023-06-26T00:55:13;42.04;40.39;46.64;;
67324;Laerm;57667;51.438;5.968;2023-06-26T00:55:24;42.29;40.34;48.95;;
67324;Laerm;57667;51.438;5.968;2023-06-26T00:55:34;41.98;40.25;45.65;;
67324;Laerm;57667;51.438;5.968;2023-06-26T00:55:45;41.79;39.86;44.73;;
67324;Laerm;57667;51.438;5.968;2023-06-26T00:55:56;42.07;40.23;46.26;;
67324;Laerm;57667;51.438;5.968;2023-06-26T00:56:06;41.97;40.32;46.37;;
67324;Laerm;57667;51.438;5.968;2023-06-26T00:56:17;41.92;40.12;47.29;;
67324;Laerm;57667;51.438;5.968;2023-06-26T00:56:27;41.95;40.49;45.65;;
67324;Laerm;57667;51.438;5.968;2023-06-26T00:56:38;42.09;40.54;48.46;;
67324;Laerm;57667;51.438;5.968;2023-06-26T00:56:49;42.20;40.49;45.60;;
67324;Laerm;57667;51.438;5.968;2023-06-26T00:57:00;42.06;40.17;48.46;;
67324;Laerm;57667;51.438;5.968;2023-06-26T00:57:10;42.08;40.41;47.67;;
67324;Laerm;57667;51.438;5.968;2023-06-26T00:57:20;42.27;40.48;44.84;;
67324;Laerm;57667;51.438;5.968;2023-06-26T00:57:31;42.49;40.28;45.07;;
67324;Laerm;57667;51.438;5.968;2023-06-26T00:57:41;42.50;40.73;44.77;;
67324;Laerm;57667;51.438;5.968;2023-06-26T00:57:54;42.40;40.50;45.75;;
67324;Laerm;57667;51.438;5.968;2023-06-26T00:58:04;42.37;40.73;44.78;;
67324;Laerm;57667;51.438;5.968;2023-06-26T00:58:15;42.70;40.43;47.09;;
67324;Laerm;57667;51.438;5.968;2023-06-26T00:58:25;42.20;40.10;48.16;;
67324;Laerm;57667;51.438;5.968;2023-06-26T00:58:35;42.39;40.44;45.37;;
67324;Laerm;57667;51.438;5.968;2023-06-26T00:58:46;42.00;40.21;46.88;;
67324;Laerm;57667;51.438;5.968;2023-06-26T00:58:56;42.15;40.48;45.00;;
67324;Laerm;57667;51.438;5.968;2023-06-26T00:59:07;42.01;40.26;45.24;;
67324;Laerm;57667;51.438;5.968;2023-06-26T00:59:17;42.13;39.78;44.67;;
67324;Laerm;57667;51.438;5.968;2023-06-26T00:59:27;42.03;40.39;45.03;;